Roseau Municipal-Billberg, MN

9:10 AM CST on December 21, 2014 (GMT -0600)
Roseau Municipal-Billberg | Change Station
CLOSE
Current Station
Airport
Location: Roseau,
Elevation: 1060 ft
Nearby Weather Stations
Active Advisory: Special Statement

Elev 1060 ft 48.86 °N, 95.70 °W | Updated 15 minutes ago

Overcast
Overcast
30 °F
Feels Like 21 °F
N
10
Wind Variable Wind from South

Today
High -- | Low -- °F
--% Chance of Precip.
Yesterday
High -- | Low -- °F
Precip. -- in
8:13 AM 4:28 PM
Waning Crescent, 0% visible
Pressure 29.71 in
Visibility 7.0 miles
Clouds Overcast 1000 ft
Windchill 21 °F
Dew Point 27 °F
Humidity 86%
Rainfall 0.02 in
Snow Depth Not available.
UV 0 out of 12
Pollen .10 out of 12
Air Quality Not available.
Flu Activity Not available.
METAR KROX 211455Z AUTO 17009KT 7SM OVC010 M01/M03 A2971 RMK AO2

More Conditions Fewer Conditions

Pressure 29.71 in
Visibility 7.0 miles
Clouds Overcast 1000 ft
Windchill 21 °F
Dew Point 27 °F
Humidity 86%
Rainfall 0.02 in
Snow Depth Not available.
UV 0 out of 12
Pollen .10 out of 12
Air Quality Not available.
Flu Activity Not available.
METAR KROX 211455Z AUTO 17009KT 7SM OVC010 M01/M03 A2971 RMK AO2

More Conditions Fewer Conditions

10-Day Weather Forecast

Almanac

Astronomy

Dec. 21, 2014 Rise Set
Actual Time
Civil Twilight
Nautical Twilight
Astronomical Twilight
Moon
Length of Visible Light
Length of Day
Tomorrow will be .
, % of the Moon is Illuminated

Today's Extremes

State Highs State Lows

Community

WunderPhotos

Upload Photos

1,779,408 photos uploaded!

WunderBlogs® & News

Nearby

Air Quality

  Air Quality AQ Index Pollutant
Not available.

Snow Depth

Station Depth Elevation

Earthquake Activity

City Distance Mag. Time & Date
Minimum magnitude displayed is 2.5.

Coastal Water Temperatures

Place Temperature

Nearby Weather Stations